Latest Weather Observations for Penrith

IDN60801

Issued at 6:05 pm EDT Saturday 1 November 2014 (issued every 30 minutes, with the page automatically refreshed every 10 minutes)

About weather observations | Map of weather stations | Latest weather observations for NSW | Other Formats
Station Details ID: 067113 Name: PENRITH LAKES AWS Lat: -33.72 Lon: 150.68 Height: 24.7 m
Data from the previous 72 hours. | See also: Recent months at Penrith
Date/Time
EDT
Temp
°C
App
Temp
°C
Dew
Point
Rel
Hum
%
Delta-T
°C
Wind Press
QNH
hPa
Press
MSL
hPa
Rain
since 9 am
mm
Dir
 
Spd
km/h
Gust
km/h
Spd
kts
Gust
kts
01/06:00pm 27.6 25.7 14.3 44 8.0 WNW 17 28 9 15 - - 5.2
01/05:40pm 26.7 22.6 13.8 45 7.6 WNW 28 46 15 25 - - 5.2
01/05:30pm 26.9 21.9 14.0 45 7.7 W 33 50 18 27 - - 5.2
01/05:02pm 28.6 25.2 15.8 45 7.9 WNW 28 46 15 25 - - 5.2
01/05:00pm 28.7 25.1 16.3 47 7.7 WNW 30 46 16 25 - - 5.2
01/04:56pm 29.0 26.3 17.5 49 7.3 WNW 28 46 15 25 - - 5.2
01/04:54pm 28.9 26.1 18.1 52 6.9 WNW 30 46 16 25 - - 5.2
01/04:52pm 29.2 23.1 15.3 42 8.5 WSW 41 54 22 29 - - 5.2
01/04:30pm 27.9 27.9 18.0 55 6.3 N 15 24 8 13 - - 5.2
01/04:00pm 25.0 23.4 18.4 66 4.2 NW 24 35 13 19 - - 5.2
01/03:35pm 22.6 16.9 16.2 67 3.9 NW 41 52 22 28 - - 5.0
01/03:32pm 25.9 16.4 15.3 52 6.4 WNW 59 93 32 50 - - 3.2
01/03:30pm 31.0 28.2 14.2 36 10.2 W 22 50 12 27 - - 2.0
01/03:00pm 31.4 30.9 16.9 41 9.2 NNW 15 20 8 11 - - 1.8
01/02:30pm 29.3 30.9 20.7 59 5.7 WNW 13 20 7 11 - - 1.8
01/02:07pm 24.6 17.7 18.3 68 4.0 NW 52 74 28 40 - - 1.8
01/02:04pm 25.9 17.5 16.5 56 5.8 NW 56 70 30 38 - - 1.0
01/02:02pm 30.4 24.7 17.1 44 8.4 NNW 43 70 23 38 - - 0.0
01/02:00pm 32.6 26.0 13.8 32 11.4 N 41 52 22 28 - - 0.0
01/01:39pm 34.7 29.7 14.0 28 12.7 N 33 59 18 32 - - 0.0
01/01:30pm 34.5 30.2 14.4 30 12.4 N 30 39 16 21 - - 0.0
01/01:17pm 33.3 28.3 13.4 30 12.0 NNW 32 50 17 27 - - 0.0
01/01:00pm 35.3 29.5 14.0 28 13.1 NNW 37 52 20 28 - - 0.0
01/12:33pm 35.4 30.2 14.6 28 12.9 NNW 35 54 19 29 - - 0.0
01/12:30pm 35.6 30.3 14.3 28 13.2 NNW 35 46 19 25 - - 0.0
01/12:00pm 33.9 28.3 14.4 31 12.0 NNW 37 57 20 31 - - 0.0
01/11:34am 33.4 27.9 13.5 30 12.1 NNW 35 65 19 35 - - 0.0
01/11:30am 33.2 27.4 13.8 31 11.8 NW 37 52 20 28 - - 0.0
01/11:08am 33.7 28.0 14.2 30 12.0 NW 37 57 20 31 - - 0.0
01/11:00am 33.6 27.7 14.6 31 11.7 NW 39 57 21 31 - - 0.0
01/10:30am 32.8 26.8 13.4 30 11.7 NW 37 63 20 34 - - 0.0
01/10:10am 32.3 27.3 13.5 32 11.3 N 32 52 17 28 - - 0.0
01/10:00am 31.7 27.5 13.5 33 11.0 N 28 41 15 22 - - 0.0
01/09:30am 30.5 27.7 13.3 35 10.3 N 20 33 11 18 - - 0.0
01/09:00am 29.6 27.3 12.9 35 9.9 N 17 24 9 13 - - 0.0
01/08:30am 28.6 25.7 12.9 38 9.2 NNW 20 37 11 20 - - 0.0
01/08:00am 27.7 24.9 12.5 39 8.9 N 19 28 10 15 - - 0.0
01/07:30am 26.9 24.1 12.5 40 8.4 NNE 19 30 10 16 - - 0.0
01/07:00am 26.1 23.3 12.5 42 7.9 NNE 19 26 10 14 - - 0.0
01/06:30am 24.2 23.3 12.5 48 6.7 NNW 9 13 5 7 - - 0.0
01/06:00am 24.2 22.7 11.9 46 7.0 N 11 15 6 8 - - 0.0
01/05:30am 24.5 22.6 11.8 45 7.2 NNE 13 17 7 9 - - 0.0
01/05:00am 24.4 23.2 12.7 48 6.7 N 11 15 6 8 - - 0.0
01/04:30am 25.3 22.9 12.5 45 7.4 N 17 22 9 12 - - 0.0
01/04:00am 26.6 24.2 11.5 39 8.6 N 15 22 8 12 - - 0.0
01/03:30am 22.5 23.3 13.6 57 5.2 W 2 9 1 5 - - 0.0
01/03:00am 22.1 23.1 14.2 61 4.6 N 2 6 1 3 - - 0.0
01/02:30am 21.6 21.7 13.8 61 4.5 SE 6 9 3 5 - - 0.0
01/02:00am 21.0 21.2 14.2 65 4.0 SSW 6 9 3 5 - - 0.0
01/01:30am 20.8 21.7 15.1 70 3.4 SW 4 7 2 4 - - 0.0
01/01:00am 20.8 21.4 14.2 66 3.8 S 4 4 2 2 - - 0.0
01/12:30am 21.1 21.5 14.7 67 3.8 E 6 9 3 5 - - 0.0
01/12:00am 20.8 21.6 14.9 69 3.5 SE 4 6 2 3 - - 0.0
 
Date/Time
EDT
Temp
°C
App
Temp
°C
Dew
Point
Rel
Hum
%
Delta-T
°C
Wind Press
QNH
hPa
Press
MSL
hPa
Rain
since 9 am
mm
Dir
 
Spd
km/h
Gust
km/h
Spd
kts
Gust
kts
31/11:30pm 21.2 22.7 15.7 71 3.3 NNW 2 4 1 2 - - 0.0
31/11:00pm 21.0 23.0 16.0 73 3.0 CALM 0 0 0 0 - - 0.0
31/10:30pm 21.7 23.4 15.3 67 3.8 CALM 0 2 0 1 - - 0.0
31/10:00pm 22.5 23.1 13.0 55 5.5 SSW 2 4 1 2 - - 0.0
31/09:30pm 22.8 24.3 14.6 60 4.8 CALM 0 0 0 0 - - 0.0
31/09:00pm 23.6 23.8 12.9 51 6.2 SSW 4 6 2 3 - - 0.0
31/08:30pm 24.2 24.4 13.1 50 6.4 SW 4 6 2 3 - - 0.0
31/08:00pm 25.6 26.0 12.4 43 7.6 E 2 6 1 3 - - 0.0
31/07:30pm 27.6 27.0 10.3 34 9.7 E 4 6 2 3 - - 0.0
31/07:00pm 29.3 28.2 9.9 30 10.9 ENE 6 7 3 4 - - 0.0
31/06:30pm 30.8 30.0 9.6 27 12.0 N 4 11 2 6 - - 0.0
31/06:00pm 31.1 27.5 10.4 28 11.8 ENE 20 30 11 16 - - 0.0
31/05:30pm 32.9 28.4 8.4 22 13.7 ENE 22 30 12 16 - - 0.0
31/05:00pm 36.2 31.5 3.4 13 17.2 NW 17 28 9 15 - - 0.0
31/04:30pm 36.1 32.0 4.4 14 16.9 N 15 26 8 14 - - 0.0
31/04:00pm 36.1 31.0 1.0 11 17.7 NNW 17 24 9 13 - - 0.0
31/03:30pm 36.4 33.9 4.6 14 17.0 NNW 7 20 4 11 - - 0.0
31/03:00pm 36.1 31.8 3.3 13 17.2 N 15 22 8 12 - - 0.0
31/02:30pm 35.6 31.3 3.0 13 17.0 N 15 24 8 13 - - 0.0
31/02:00pm 35.6 30.3 1.8 12 17.3 N 19 26 10 14 - - 0.0
31/01:30pm 35.0 30.7 5.4 16 15.9 NNW 17 32 9 17 - - 0.0
31/01:00pm 35.0 30.9 7.9 19 15.2 NNE 19 32 10 17 - - 0.0
31/12:30pm 33.5 30.9 10.8 25 13.2 NE 15 20 8 11 - - 0.0
31/12:00pm 32.0 30.9 13.2 31 11.3 NNE 11 19 6 10 - - 0.0
31/11:30am 29.1 29.3 12.9 37 9.6 NW 4 6 2 3 - - 0.0
31/11:00am 26.8 26.4 12.5 41 8.3 SSW 6 9 3 5 - - 0.0
31/10:30am 25.3 25.3 11.1 41 8.0 WSW 2 6 1 3 - - 0.0
31/10:00am 23.8 23.1 10.1 42 7.5 SSE 4 7 2 4 - - 0.0
31/09:30am 22.4 21.7 9.9 45 6.8 SSE 4 7 2 4 - - 0.0
31/09:00am 20.8 20.5 10.0 50 5.8 SSE 2 6 1 3 - - 0.0
31/08:30am 19.0 18.7 11.3 61 4.2 SSW 4 6 2 3 - - 0.0
31/08:00am 17.6 17.6 11.2 66 3.5 SSE 2 4 1 2 - - 0.0
31/07:30am 16.9 17.2 11.0 68 3.2 CALM 0 0 0 0 - - 0.0
31/07:00am 15.5 15.7 10.7 73 2.5 CALM 0 0 0 0 - - 0.0
31/06:30am 13.9 14.3 11.2 84 1.4 CALM 0 0 0 0 - - 0.0
31/06:00am 13.7 14.1 11.4 86 1.2 CALM 0 0 0 0 - - 0.0
31/05:30am 13.6 13.9 10.8 83 1.5 CALM 0 0 0 0 - - 0.0
31/05:00am 14.4 14.5 11.4 82 1.6 SE 2 4 1 2 - - 0.0
31/04:30am 14.2 14.6 11.2 82 1.6 CALM 0 0 0 0 - - 0.0
31/04:00am 14.1 13.5 10.5 79 1.9 SSW 4 4 2 2 - - 0.0
31/03:30am 14.8 14.8 11.2 79 1.9 SSW 2 4 1 2 - - 0.0
31/03:00am 15.0 14.6 11.2 78 2.0 S 4 4 2 2 - - 0.0
31/02:30am 15.3 15.6 10.9 75 2.3 CALM 0 0 0 0 - - 0.0
31/02:00am 16.3 16.6 11.0 71 2.8 CALM 0 2 0 1 - - 0.0
31/01:30am 16.4 16.3 10.7 69 3.0 SSE 2 4 1 2 - - 0.0
31/01:00am 16.3 15.8 10.6 69 3.0 SW 4 7 2 4 - - 0.0
31/12:30am 16.4 15.9 10.7 69 3.0 S 4 6 2 3 - - 0.0
31/12:00am 17.2 16.8 11.0 67 3.3 SW 4 4 2 2 - - 0.0
 
Date/Time
EDT
Temp
°C
App
Temp
°C
Dew
Point
Rel
Hum
%
Delta-T
°C
Wind Press
QNH
hPa
Press
MSL
hPa
Rain
since 9 am
mm
Dir
 
Spd
km/h
Gust
km/h
Spd
kts
Gust
kts
30/11:30pm 18.4 18.0 11.0 62 4.0 SSE 4 4 2 2 - - 0.0
30/11:00pm 19.7 19.3 11.2 58 4.7 S 4 7 2 4 - - 0.0
30/10:30pm 20.7 20.0 11.3 55 5.2 S 6 9 3 5 - - 0.0
30/10:00pm 20.8 20.8 12.5 59 4.7 S 4 6 2 3 - - 0.0
30/09:30pm 22.5 22.2 11.6 50 6.1 SSE 4 7 2 4 - - 0.0
30/09:00pm 23.0 21.5 10.4 45 6.9 SSW 9 13 5 7 - - 0.0
30/08:30pm 23.3 21.8 9.0 40 7.7 S 7 15 4 8 - - 0.0
30/08:00pm 25.5 24.1 8.9 35 9.0 WSW 6 7 3 4 - - 0.0
30/07:30pm 28.0 25.2 5.0 23 11.8 WNW 9 11 5 6 - - 0.0
30/07:00pm 29.5 26.8 5.6 22 12.5 WNW 9 15 5 8 - - 0.0
30/06:30pm 31.1 28.5 4.0 18 14.0 WNW 7 13 4 7 - - 0.0
30/06:00pm 31.7 28.9 5.3 19 13.9 WNW 9 15 5 8 - - 0.0
30/05:30pm 31.9 28.1 3.8 17 14.5 W 13 17 7 9 - - 0.0
30/05:00pm 32.5 29.5 4.3 17 14.7 WNW 9 17 5 9 - - 0.0
30/04:30pm 32.2 30.8 5.7 19 14.1 SW 2 7 1 4 - - 0.0
30/04:00pm 31.3 29.2 5.7 20 13.6 SE 6 11 3 6 - - 0.0
30/03:30pm 31.4 29.4 7.1 22 13.2 SE 7 11 4 6 - - 0.0
30/03:00pm 30.9 29.0 6.7 22 13.0 S 6 9 3 5 - - 0.0
30/02:30pm 30.9 29.1 8.0 24 12.6 SSE 7 11 4 6 - - 0.0
30/02:00pm 29.8 28.1 8.2 26 11.9 SSW 7 9 4 5 - - 0.0
30/01:30pm 29.0 27.5 9.2 29 11.0 SSE 7 11 4 6 - - 0.0
30/01:00pm 28.7 27.7 10.4 32 10.4 SE 6 11 3 6 - - 0.0
30/12:30pm 27.9 26.6 9.2 31 10.3 NNE 6 11 3 6 - - 0.0
30/12:00pm 27.1 26.6 10.8 36 9.2 N 4 13 2 7 - - 0.0
30/11:30am 26.0 25.5 10.6 38 8.6 N 4 7 2 4 - - 0.0
30/11:00am 24.5 24.5 13.7 51 6.3 NNW 6 9 3 5 - - 0.0
30/10:30am 23.4 23.5 13.8 54 5.6 NNW 6 11 3 6 - - 0.0
30/10:00am 22.7 23.1 13.7 56 5.2 NNW 4 7 2 4 - - 0.0
30/09:30am 20.8 20.9 14.0 65 3.9 SSE 6 7 3 4 - - 0.0
30/09:00am 20.5 21.4 13.9 66 3.8 SE 2 6 1 3 - - 0.0
30/08:30am 18.8 19.9 13.4 71 3.1 CALM 0 0 0 0 - - 0.0
30/08:00am 17.6 18.2 13.1 75 2.5 SSE 2 4 1 2 - - 0.0
30/07:30am 16.1 17.1 13.2 83 1.6 CALM 0 0 0 0 - - 0.0
30/07:00am 15.0 15.7 13.5 91 0.8 WSW 2 4 1 2 - - 0.0
30/06:30am 14.0 14.2 12.9 93 0.6 WNW 4 6 2 3 - - 0.0
30/06:00am 13.9 14.5 13.0 94 0.5 W 2 6 1 3 - - 0.0
30/05:30am 13.9 14.5 13.0 94 0.5 W 2 2 1 1 - - 0.0
30/05:00am 14.3 15.4 13.5 95 0.4 CALM 0 0 0 0 - - 0.0
30/04:30am 14.5 15.5 13.2 92 0.7 CALM 0 0 0 0 - - 0.0
30/04:00am 14.4 15.3 13.0 91 0.8 CALM 0 0 0 0 - - 0.0
30/03:30am 15.1 16.3 13.8 92 0.7 CALM 0 0 0 0 - - 0.0
30/03:00am 14.8 16.0 13.7 93 0.6 CALM 0 0 0 0 - - 0.0
30/02:30am 14.8 15.8 13.3 91 0.8 CALM 0 0 0 0 - - 0.0
30/02:00am 15.1 16.2 13.5 90 0.9 CALM 0 0 0 0 - - 0.0
30/01:30am 15.5 16.7 13.9 90 0.9 CALM 0 0 0 0 - - 0.0
30/01:00am 16.0 17.2 13.8 87 1.2 CALM 0 0 0 0 - - 0.0
30/12:30am 16.0 17.1 13.5 85 1.4 CALM 0 0 0 0 - - 0.0
30/12:00am 16.7 17.5 13.8 83 1.6 NE 2 4 1 2 - - 0.0
 
Date/Time
EDT
Temp
°C
App
Temp
°C
Dew
Point
Rel
Hum
%
Delta-T
°C
Wind Press
QNH
hPa
Press
MSL
hPa
Rain
since 9 am
mm
Dir
 
Spd
km/h
Gust
km/h
Spd
kts
Gust
kts
29/11:30pm 16.8 17.2 13.7 82 1.8 NE 4 6 2 3 - - 0.0
29/11:00pm 17.5 17.9 13.6 78 2.2 NE 4 6 2 3 - - 0.0
29/10:30pm 18.0 18.5 13.9 77 2.3 NNE 4 4 2 2 - - 0.0
29/10:00pm 18.2 18.7 13.9 76 2.5 NNE 4 6 2 3 - - 0.0
29/09:30pm 18.6 19.0 13.7 73 2.8 ENE 4 9 2 5 - - 0.0
29/09:00pm 19.0 19.1 13.8 72 3.0 ENE 6 7 3 4 - - 0.0
29/08:30pm 19.3 19.3 13.5 69 3.3 E 6 11 3 6 - - 0.0
29/08:00pm 19.7 19.4 13.4 67 3.6 E 7 9 4 5 - - 0.0
29/07:30pm 20.5 19.5 13.5 64 4.0 E 11 17 6 9 - - 0.0
29/07:00pm 21.4 20.0 13.3 60 4.7 ENE 13 19 7 10 - - 0.0
29/06:30pm 22.7 20.4 12.9 54 5.6 ENE 17 22 9 12 - - 0.0

Other Formats:

Comma delimited format used in spreadsheet applications
http://www.bom.gov.au/fwo/IDN60801/IDN60801.94763.axf

JavaScript Object Notation format (JSON) in row-major order
http://www.bom.gov.au/fwo/IDN60801/IDN60801.94763.json